sensor_id;sensor_type;location;lat;lon;timestamp;P1;durP1;ratioP1;P2;durP2;ratioP2
73550;SDS011;61816;53.582;10.096;2023-02-19T00:00:26;34.88;;;12.35;;
73550;SDS011;61816;53.582;10.096;2023-02-19T00:02:52;31.25;;;10.55;;
73550;SDS011;61816;53.582;10.096;2023-02-19T00:05:17;29.40;;;11.95;;
73550;SDS011;61816;53.582;10.096;2023-02-19T00:07:42;26.50;;;12.68;;
73550;SDS011;61816;53.582;10.096;2023-02-19T00:10:08;23.77;;;9.82;;
73550;SDS011;61816;53.582;10.096;2023-02-19T00:12:33;25.38;;;9.38;;
73550;SDS011;61816;53.582;10.096;2023-02-19T00:14:58;42.08;;;10.25;;
73550;SDS011;61816;53.582;10.096;2023-02-19T00:17:24;27.65;;;10.00;;
73550;SDS011;61816;53.582;10.096;2023-02-19T00:19:49;23.83;;;9.93;;
73550;SDS011;61816;53.582;10.096;2023-02-19T00:22:15;28.63;;;9.73;;
73550;SDS011;61816;53.582;10.096;2023-02-19T00:24:40;26.08;;;11.48;;
73550;SDS011;61816;53.582;10.096;2023-02-19T00:27:06;39.45;;;10.73;;
73550;SDS011;61816;53.582;10.096;2023-02-19T00:29:31;28.73;;;9.40;;
73550;SDS011;61816;53.582;10.096;2023-02-19T00:31:56;30.35;;;11.70;;
73550;SDS011;61816;53.582;10.096;2023-02-19T00:34:22;30.83;;;10.65;;
73550;SDS011;61816;53.582;10.096;2023-02-19T00:36:47;28.83;;;11.70;;
73550;SDS011;61816;53.582;10.096;2023-02-19T00:39:13;31.60;;;10.88;;
73550;SDS011;61816;53.582;10.096;2023-02-19T00:41:42;28.75;;;10.00;;
73550;SDS011;61816;53.582;10.096;2023-02-19T00:44:09;19.48;;;9.82;;
73550;SDS011;61816;53.582;10.096;2023-02-19T00:46:40;25.70;;;9.80;;
73550;SDS011;61816;53.582;10.096;2023-02-19T00:49:07;32.58;;;10.13;;
73550;SDS011;61816;53.582;10.096;2023-02-19T00:51:37;28.30;;;9.68;;
73550;SDS011;61816;53.582;10.096;2023-02-19T00:54:03;33.13;;;10.18;;
73550;SDS011;61816;53.582;10.096;2023-02-19T00:56:29;36.30;;;9.88;;
73550;SDS011;61816;53.582;10.096;2023-02-19T00:58:55;29.25;;;9.30;;
73550;SDS011;61816;53.582;10.096;2023-02-19T01:01:21;32.03;;;10.23;;
73550;SDS011;61816;53.582;10.096;2023-02-19T01:03:46;35.78;;;11.80;;
73550;SDS011;61816;53.582;10.096;2023-02-19T01:06:13;30.15;;;9.73;;
73550;SDS011;61816;53.582;10.096;2023-02-19T01:08:40;37.42;;;11.85;;
73550;SDS011;61816;53.582;10.096;2023-02-19T01:11:06;29.50;;;11.30;;
73550;SDS011;61816;53.582;10.096;2023-02-19T01:13:33;41.47;;;11.43;;
73550;SDS011;61816;53.582;10.096;2023-02-19T01:16:07;35.72;;;12.23;;
73550;SDS011;61816;53.582;10.096;2023-02-19T01:18:35;30.10;;;9.95;;
73550;SDS011;61816;53.582;10.096;2023-02-19T01:21:08;38.78;;;13.30;;
73550;SDS011;61816;53.582;10.096;2023-02-19T01:23:36;35.90;;;11.77;;
73550;SDS011;61816;53.582;10.096;2023-02-19T01:26:03;36.55;;;12.85;;
73550;SDS011;61816;53.582;10.096;2023-02-19T01:28:30;25.38;;;11.15;;
73550;SDS011;61816;53.582;10.096;2023-02-19T01:30:59;39.67;;;11.25;;
73550;SDS011;61816;53.582;10.096;2023-02-19T01:33:25;36.80;;;13.50;;
73550;SDS011;61816;53.582;10.096;2023-02-19T01:35:51;38.50;;;11.45;;
73550;SDS011;61816;53.582;10.096;2023-02-19T01:38:16;24.67;;;9.85;;
73550;SDS011;61816;53.582;10.096;2023-02-19T01:40:41;31.58;;;10.45;;
73550;SDS011;61816;53.582;10.096;2023-02-19T01:43:14;25.73;;;9.77;;
73550;SDS011;61816;53.582;10.096;2023-02-19T01:45:44;30.40;;;10.38;;
73550;SDS011;61816;53.582;10.096;2023-02-19T01:48:15;30.42;;;9.15;;
73550;SDS011;61816;53.582;10.096;2023-02-19T01:50:49;28.58;;;9.52;;
73550;SDS011;61816;53.582;10.096;2023-02-19T01:53:20;32.03;;;8.35;;
73550;SDS011;61816;53.582;10.096;2023-02-19T01:55:49;25.73;;;8.43;;
73550;SDS011;61816;53.582;10.096;2023-02-19T01:58:16;30.58;;;10.38;;
73550;SDS011;61816;53.582;10.096;2023-02-19T02:00:42;27.13;;;9.45;;
73550;SDS011;61816;53.582;10.096;2023-02-19T02:03:08;22.23;;;9.32;;
73550;SDS011;61816;53.582;10.096;2023-02-19T02:08:32;21.27;;;9.90;;
73550;SDS011;61816;53.582;10.096;2023-02-19T02:11:16;31.52;;;10.98;;
73550;SDS011;61816;53.582;10.096;2023-02-19T02:13:42;29.95;;;9.68;;
73550;SDS011;61816;53.582;10.096;2023-02-19T02:19:14;20.77;;;9.52;;
73550;SDS011;61816;53.582;10.096;2023-02-19T02:24:32;31.45;;;8.30;;
73550;SDS011;61816;53.582;10.096;2023-02-19T02:30:09;27.42;;;9.98;;
73550;SDS011;61816;53.582;10.096;2023-02-19T02:35:27;31.15;;;8.10;;
73550;SDS011;61816;53.582;10.096;2023-02-19T02:37:58;24.80;;;6.97;;
73550;SDS011;61816;53.582;10.096;2023-02-19T02:40:26;22.90;;;5.95;;
73550;SDS011;61816;53.582;10.096;2023-02-19T02:42:55;21.98;;;4.63;;
73550;SDS011;61816;53.582;10.096;2023-02-19T02:45:22;24.20;;;4.50;;
73550;SDS011;61816;53.582;10.096;2023-02-19T02:48:00;26.50;;;5.03;;
73550;SDS011;61816;53.582;10.096;2023-02-19T02:50:33;16.92;;;4.13;;
73550;SDS011;61816;53.582;10.096;2023-02-19T02:53:06;19.23;;;5.97;;
73550;SDS011;61816;53.582;10.096;2023-02-19T02:55:55;20.02;;;4.53;;
73550;SDS011;61816;53.582;10.096;2023-02-19T02:58:21;16.65;;;4.40;;
73550;SDS011;61816;53.582;10.096;2023-02-19T03:00:50;20.92;;;5.43;;
73550;SDS011;61816;53.582;10.096;2023-02-19T03:03:39;23.05;;;4.80;;
73550;SDS011;61816;53.582;10.096;2023-02-19T03:06:07;25.35;;;5.85;;
73550;SDS011;61816;53.582;10.096;2023-02-19T03:08:48;16.67;;;5.28;;
73550;SDS011;61816;53.582;10.096;2023-02-19T03:11:19;21.92;;;6.03;;
73550;SDS011;61816;53.582;10.096;2023-02-19T03:14:09;15.27;;;5.15;;
73550;SDS011;61816;53.582;10.096;2023-02-19T03:16:59;32.40;;;6.07;;
73550;SDS011;61816;53.582;10.096;2023-02-19T03:19:51;25.63;;;5.90;;
73550;SDS011;61816;53.582;10.096;2023-02-19T03:22:21;15.35;;;5.30;;
73550;SDS011;61816;53.582;10.096;2023-02-19T03:36:10;26.08;;;6.00;;
73550;SDS011;61816;53.582;10.096;2023-02-19T03:38:42;18.15;;;5.30;;
73550;SDS011;61816;53.582;10.096;2023-02-19T03:41:18;21.65;;;5.65;;
73550;SDS011;61816;53.582;10.096;2023-02-19T03:46:58;24.48;;;6.30;;
73550;SDS011;61816;53.582;10.096;2023-02-19T03:55:17;18.58;;;5.95;;
73550;SDS011;61816;53.582;10.096;2023-02-19T04:01:05;30.42;;;6.63;;
73550;SDS011;61816;53.582;10.096;2023-02-19T04:03:42;19.30;;;5.97;;
73550;SDS011;61816;53.582;10.096;2023-02-19T04:06:14;30.40;;;7.65;;
73550;SDS011;61816;53.582;10.096;2023-02-19T04:08:44;23.27;;;7.50;;
73550;SDS011;61816;53.582;10.096;2023-02-19T04:11:13;35.50;;;8.25;;
73550;SDS011;61816;53.582;10.096;2023-02-19T04:13:42;25.95;;;6.88;;
73550;SDS011;61816;53.582;10.096;2023-02-19T04:16:12;19.48;;;8.18;;
73550;SDS011;61816;53.582;10.096;2023-02-19T04:18:44;15.75;;;6.90;;
73550;SDS011;61816;53.582;10.096;2023-02-19T04:21:13;19.85;;;7.22;;
73550;SDS011;61816;53.582;10.096;2023-02-19T04:23:41;27.02;;;7.63;;
73550;SDS011;61816;53.582;10.096;2023-02-19T04:26:08;24.15;;;7.05;;
73550;SDS011;61816;53.582;10.096;2023-02-19T04:28:36;28.27;;;8.25;;
73550;SDS011;61816;53.582;10.096;2023-02-19T04:31:01;27.92;;;8.13;;
73550;SDS011;61816;53.582;10.096;2023-02-19T04:33:27;26.95;;;9.10;;
73550;SDS011;61816;53.582;10.096;2023-02-19T04:35:52;34.15;;;9.57;;
73550;SDS011;61816;53.582;10.096;2023-02-19T04:38:17;25.35;;;9.07;;
73550;SDS011;61816;53.582;10.096;2023-02-19T04:40:43;25.48;;;7.25;;
73550;SDS011;61816;53.582;10.096;2023-02-19T04:43:08;29.00;;;8.10;;
73550;SDS011;61816;53.582;10.096;2023-02-19T04:45:35;22.60;;;6.65;;
73550;SDS011;61816;53.582;10.096;2023-02-19T04:48:01;16.75;;;6.03;;
73550;SDS011;61816;53.582;10.096;2023-02-19T04:50:27;27.60;;;6.70;;
73550;SDS011;61816;53.582;10.096;2023-02-19T04:52:52;29.65;;;6.63;;
73550;SDS011;61816;53.582;10.096;2023-02-19T04:55:17;16.38;;;5.63;;
73550;SDS011;61816;53.582;10.096;2023-02-19T04:57:43;32.33;;;6.43;;
73550;SDS011;61816;53.582;10.096;2023-02-19T05:00:08;16.83;;;5.65;;
73550;SDS011;61816;53.582;10.096;2023-02-19T05:02:34;14.30;;;4.93;;
73550;SDS011;61816;53.582;10.096;2023-02-19T05:04:59;27.98;;;6.50;;
73550;SDS011;61816;53.582;10.096;2023-02-19T05:07:25;18.58;;;5.57;;
73550;SDS011;61816;53.582;10.096;2023-02-19T05:09:50;24.90;;;5.18;;
73550;SDS011;61816;53.582;10.096;2023-02-19T05:12:15;21.38;;;5.57;;
73550;SDS011;61816;53.582;10.096;2023-02-19T05:14:41;30.75;;;6.28;;
73550;SDS011;61816;53.582;10.096;2023-02-19T05:17:06;30.98;;;5.25;;
73550;SDS011;61816;53.582;10.096;2023-02-19T05:19:32;21.38;;;5.75;;
73550;SDS011;61816;53.582;10.096;2023-02-19T05:21:57;28.33;;;5.90;;
73550;SDS011;61816;53.582;10.096;2023-02-19T05:24:22;18.33;;;5.80;;
73550;SDS011;61816;53.582;10.096;2023-02-19T05:26:48;17.02;;;4.90;;
73550;SDS011;61816;53.582;10.096;2023-02-19T05:29:14;24.13;;;5.97;;
73550;SDS011;61816;53.582;10.096;2023-02-19T05:31:40;25.58;;;5.70;;
73550;SDS011;61816;53.582;10.096;2023-02-19T05:34:05;20.17;;;5.10;;
73550;SDS011;61816;53.582;10.096;2023-02-19T05:36:30;21.75;;;4.93;;
73550;SDS011;61816;53.582;10.096;2023-02-19T05:38:57;23.52;;;5.40;;
73550;SDS011;61816;53.582;10.096;2023-02-19T05:41:23;24.75;;;5.20;;
73550;SDS011;61816;53.582;10.096;2023-02-19T05:43:50;26.52;;;5.43;;
73550;SDS011;61816;53.582;10.096;2023-02-19T05:46:17;12.43;;;4.60;;
73550;SDS011;61816;53.582;10.096;2023-02-19T05:48:44;20.08;;;4.60;;
73550;SDS011;61816;53.582;10.096;2023-02-19T05:51:11;19.30;;;4.75;;
73550;SDS011;61816;53.582;10.096;2023-02-19T05:53:39;20.40;;;4.90;;
73550;SDS011;61816;53.582;10.096;2023-02-19T05:58:50;21.35;;;3.90;;
73550;SDS011;61816;53.582;10.096;2023-02-19T06:01:16;18.25;;;4.53;;
73550;SDS011;61816;53.582;10.096;2023-02-19T06:03:42;28.42;;;4.82;;
73550;SDS011;61816;53.582;10.096;2023-02-19T06:06:08;24.70;;;5.78;;
73550;SDS011;61816;53.582;10.096;2023-02-19T06:08:37;17.88;;;4.03;;
73550;SDS011;61816;53.582;10.096;2023-02-19T06:11:02;28.23;;;4.80;;
73550;SDS011;61816;53.582;10.096;2023-02-19T06:13:28;14.70;;;4.25;;
73550;SDS011;61816;53.582;10.096;2023-02-19T06:15:53;33.45;;;4.45;;
73550;SDS011;61816;53.582;10.096;2023-02-19T06:18:18;25.40;;;4.55;;
73550;SDS011;61816;53.582;10.096;2023-02-19T06:20:43;24.88;;;4.55;;
73550;SDS011;61816;53.582;10.096;2023-02-19T06:23:09;23.52;;;4.80;;
73550;SDS011;61816;53.582;10.096;2023-02-19T06:25:34;13.45;;;4.43;;
73550;SDS011;61816;53.582;10.096;2023-02-19T06:27:59;20.25;;;4.78;;
73550;SDS011;61816;53.582;10.096;2023-02-19T06:30:25;19.48;;;4.30;;
73550;SDS011;61816;53.582;10.096;2023-02-19T06:32:51;23.17;;;4.85;;
73550;SDS011;61816;53.582;10.096;2023-02-19T06:35:17;28.00;;;4.38;;
73550;SDS011;61816;53.582;10.096;2023-02-19T06:37:45;31.67;;;5.13;;
73550;SDS011;61816;53.582;10.096;2023-02-19T06:40:11;17.38;;;4.45;;
73550;SDS011;61816;53.582;10.096;2023-02-19T06:42:36;16.88;;;4.28;;
73550;SDS011;61816;53.582;10.096;2023-02-19T06:45:01;27.65;;;4.75;;
73550;SDS011;61816;53.582;10.096;2023-02-19T06:47:29;28.40;;;4.60;;
73550;SDS011;61816;53.582;10.096;2023-02-19T06:49:56;24.98;;;4.13;;
73550;SDS011;61816;53.582;10.096;2023-02-19T06:52:22;23.27;;;4.53;;
73550;SDS011;61816;53.582;10.096;2023-02-19T06:54:47;27.38;;;4.97;;
73550;SDS011;61816;53.582;10.096;2023-02-19T06:57:13;25.95;;;4.82;;
73550;SDS011;61816;53.582;10.096;2023-02-19T06:59:38;34.33;;;5.00;;
73550;SDS011;61816;53.582;10.096;2023-02-19T07:02:08;26.52;;;5.05;;
73550;SDS011;61816;53.582;10.096;2023-02-19T07:04:35;41.92;;;5.70;;
73550;SDS011;61816;53.582;10.096;2023-02-19T07:07:00;21.80;;;4.82;;
73550;SDS011;61816;53.582;10.096;2023-02-19T07:09:26;20.83;;;4.55;;
73550;SDS011;61816;53.582;10.096;2023-02-19T07:11:52;28.58;;;5.55;;
73550;SDS011;61816;53.582;10.096;2023-02-19T07:14:18;30.80;;;4.53;;
73550;SDS011;61816;53.582;10.096;2023-02-19T07:16:45;28.30;;;5.88;;
73550;SDS011;61816;53.582;10.096;2023-02-19T07:19:11;23.52;;;5.03;;
73550;SDS011;61816;53.582;10.096;2023-02-19T07:21:38;18.75;;;4.47;;
73550;SDS011;61816;53.582;10.096;2023-02-19T07:24:05;23.73;;;5.47;;
73550;SDS011;61816;53.582;10.096;2023-02-19T07:26:31;27.30;;;5.65;;
73550;SDS011;61816;53.582;10.096;2023-02-19T07:28:56;20.55;;;6.13;;
73550;SDS011;61816;53.582;10.096;2023-02-19T07:31:22;22.77;;;4.65;;
73550;SDS011;61816;53.582;10.096;2023-02-19T07:33:48;36.55;;;6.20;;
73550;SDS011;61816;53.582;10.096;2023-02-19T07:36:14;28.17;;;5.32;;
73550;SDS011;61816;53.582;10.096;2023-02-19T07:38:41;24.67;;;5.60;;
73550;SDS011;61816;53.582;10.096;2023-02-19T07:41:07;25.50;;;5.75;;
73550;SDS011;61816;53.582;10.096;2023-02-19T07:43:33;25.65;;;6.55;;
73550;SDS011;61816;53.582;10.096;2023-02-19T07:46:07;23.38;;;6.15;;
73550;SDS011;61816;53.582;10.096;2023-02-19T07:48:37;18.10;;;4.63;;
73550;SDS011;61816;53.582;10.096;2023-02-19T07:51:04;29.80;;;5.82;;
73550;SDS011;61816;53.582;10.096;2023-02-19T07:53:35;15.27;;;4.90;;
73550;SDS011;61816;53.582;10.096;2023-02-19T07:56:04;31.08;;;5.25;;
73550;SDS011;61816;53.582;10.096;2023-02-19T07:58:31;25.85;;;6.53;;
73550;SDS011;61816;53.582;10.096;2023-02-19T08:01:05;21.52;;;5.15;;
73550;SDS011;61816;53.582;10.096;2023-02-19T08:03:36;39.42;;;5.50;;
73550;SDS011;61816;53.582;10.096;2023-02-19T08:06:02;20.42;;;4.75;;
73550;SDS011;61816;53.582;10.096;2023-02-19T08:08:27;27.40;;;5.22;;
73550;SDS011;61816;53.582;10.096;2023-02-19T08:10:53;25.35;;;4.75;;
73550;SDS011;61816;53.582;10.096;2023-02-19T08:13:37;19.92;;;5.65;;
73550;SDS011;61816;53.582;10.096;2023-02-19T08:18:30;19.70;;;5.25;;
73550;SDS011;61816;53.582;10.096;2023-02-19T08:20:56;21.48;;;4.95;;
73550;SDS011;61816;53.582;10.096;2023-02-19T08:23:23;12.98;;;4.70;;
73550;SDS011;61816;53.582;10.096;2023-02-19T08:25:49;18.10;;;4.32;;
73550;SDS011;61816;53.582;10.096;2023-02-19T08:28:16;26.23;;;4.88;;
73550;SDS011;61816;53.582;10.096;2023-02-19T08:30:43;12.68;;;4.63;;
73550;SDS011;61816;53.582;10.096;2023-02-19T08:33:11;21.45;;;5.07;;
73550;SDS011;61816;53.582;10.096;2023-02-19T08:35:38;13.40;;;4.20;;
73550;SDS011;61816;53.582;10.096;2023-02-19T08:38:04;22.63;;;4.90;;
73550;SDS011;61816;53.582;10.096;2023-02-19T08:40:31;17.27;;;4.78;;
73550;SDS011;61816;53.582;10.096;2023-02-19T08:43:01;16.33;;;4.15;;
73550;SDS011;61816;53.582;10.096;2023-02-19T08:45:35;15.55;;;3.88;;
73550;SDS011;61816;53.582;10.096;2023-02-19T08:48:01;19.65;;;3.75;;
73550;SDS011;61816;53.582;10.096;2023-02-19T08:50:26;23.70;;;3.60;;
73550;SDS011;61816;53.582;10.096;2023-02-19T08:52:52;21.30;;;5.20;;
73550;SDS011;61816;53.582;10.096;2023-02-19T08:55:17;14.38;;;3.30;;
73550;SDS011;61816;53.582;10.096;2023-02-19T08:57:43;21.23;;;3.85;;
73550;SDS011;61816;53.582;10.096;2023-02-19T09:00:08;19.13;;;3.05;;
73550;SDS011;61816;53.582;10.096;2023-02-19T09:02:35;22.08;;;3.60;;
73550;SDS011;61816;53.582;10.096;2023-02-19T09:05:00;19.00;;;3.65;;
73550;SDS011;61816;53.582;10.096;2023-02-19T09:07:26;19.48;;;2.95;;
73550;SDS011;61816;53.582;10.096;2023-02-19T09:09:52;23.20;;;3.38;;
73550;SDS011;61816;53.582;10.096;2023-02-19T09:12:18;13.93;;;2.28;;
73550;SDS011;61816;53.582;10.096;2023-02-19T09:14:43;20.85;;;3.47;;
73550;SDS011;61816;53.582;10.096;2023-02-19T09:17:09;17.65;;;2.45;;
73550;SDS011;61816;53.582;10.096;2023-02-19T09:19:34;15.35;;;2.85;;
73550;SDS011;61816;53.582;10.096;2023-02-19T09:22:00;26.15;;;3.08;;
73550;SDS011;61816;53.582;10.096;2023-02-19T09:24:25;13.77;;;2.53;;
73550;SDS011;61816;53.582;10.096;2023-02-19T09:26:51;11.98;;;2.63;;
73550;SDS011;61816;53.582;10.096;2023-02-19T09:29:18;14.70;;;2.42;;
73550;SDS011;61816;53.582;10.096;2023-02-19T09:31:43;19.00;;;2.60;;
73550;SDS011;61816;53.582;10.096;2023-02-19T09:34:09;21.05;;;2.58;;
73550;SDS011;61816;53.582;10.096;2023-02-19T09:36:36;19.55;;;3.25;;
73550;SDS011;61816;53.582;10.096;2023-02-19T09:39:02;17.50;;;3.22;;
73550;SDS011;61816;53.582;10.096;2023-02-19T09:41:37;17.13;;;3.13;;
73550;SDS011;61816;53.582;10.096;2023-02-19T09:44:09;21.70;;;2.67;;
73550;SDS011;61816;53.582;10.096;2023-02-19T09:49:18;10.65;;;2.00;;
73550;SDS011;61816;53.582;10.096;2023-02-19T09:51:53;23.58;;;2.17;;
73550;SDS011;61816;53.582;10.096;2023-02-19T09:54:26;9.45;;;1.80;;
73550;SDS011;61816;53.582;10.096;2023-02-19T09:56:55;16.60;;;3.22;;
73550;SDS011;61816;53.582;10.096;2023-02-19T09:59:22;25.52;;;2.78;;
73550;SDS011;61816;53.582;10.096;2023-02-19T10:01:53;20.80;;;3.17;;
73550;SDS011;61816;53.582;10.096;2023-02-19T10:04:26;17.75;;;2.67;;
73550;SDS011;61816;53.582;10.096;2023-02-19T10:06:51;13.70;;;2.15;;
73550;SDS011;61816;53.582;10.096;2023-02-19T10:09:24;17.77;;;2.88;;
73550;SDS011;61816;53.582;10.096;2023-02-19T10:11:51;17.67;;;2.17;;
73550;SDS011;61816;53.582;10.096;2023-02-19T10:14:25;13.88;;;2.25;;
73550;SDS011;61816;53.582;10.096;2023-02-19T10:17:02;13.25;;;2.10;;
73550;SDS011;61816;53.582;10.096;2023-02-19T10:19:29;12.73;;;1.73;;
73550;SDS011;61816;53.582;10.096;2023-02-19T10:21:56;12.60;;;2.10;;
73550;SDS011;61816;53.582;10.096;2023-02-19T10:24:23;14.73;;;1.67;;
73550;SDS011;61816;53.582;10.096;2023-02-19T10:26:51;17.85;;;2.47;;
73550;SDS011;61816;53.582;10.096;2023-02-19T10:29:17;7.40;;;1.83;;
73550;SDS011;61816;53.582;10.096;2023-02-19T10:31:44;11.40;;;2.10;;
73550;SDS011;61816;53.582;10.096;2023-02-19T10:34:16;14.90;;;2.00;;
73550;SDS011;61816;53.582;10.096;2023-02-19T10:36:43;14.63;;;2.05;;
73550;SDS011;61816;53.582;10.096;2023-02-19T10:41:47;7.63;;;1.85;;
73550;SDS011;61816;53.582;10.096;2023-02-19T10:44:19;13.45;;;1.88;;
73550;SDS011;61816;53.582;10.096;2023-02-19T10:46:49;13.93;;;1.92;;
73550;SDS011;61816;53.582;10.096;2023-02-19T10:49:29;18.98;;;1.48;;
73550;SDS011;61816;53.582;10.096;2023-02-19T10:52:03;9.57;;;1.75;;
73550;SDS011;61816;53.582;10.096;2023-02-19T10:54:49;18.55;;;2.10;;
73550;SDS011;61816;53.582;10.096;2023-02-19T11:02:46;9.25;;;1.65;;
73550;SDS011;61816;53.582;10.096;2023-02-19T11:05:17;10.82;;;1.67;;
73550;SDS011;61816;53.582;10.096;2023-02-19T11:07:47;10.15;;;1.88;;
73550;SDS011;61816;53.582;10.096;2023-02-19T11:12:51;9.77;;;1.73;;
73550;SDS011;61816;53.582;10.096;2023-02-19T11:20:20;10.85;;;1.98;;
73550;SDS011;61816;53.582;10.096;2023-02-19T11:22:46;12.57;;;1.60;;
73550;SDS011;61816;53.582;10.096;2023-02-19T11:30:41;9.30;;;1.48;;
73550;SDS011;61816;53.582;10.096;2023-02-19T11:35:44;8.98;;;1.40;;
73550;SDS011;61816;53.582;10.096;2023-02-19T11:38:10;11.85;;;2.08;;
73550;SDS011;61816;53.582;10.096;2023-02-19T11:40:56;10.60;;;2.03;;
73550;SDS011;61816;53.582;10.096;2023-02-19T11:43:36;7.45;;;1.10;;
73550;SDS011;61816;53.582;10.096;2023-02-19T11:51:58;12.15;;;1.35;;
73550;SDS011;61816;53.582;10.096;2023-02-19T11:54:51;12.35;;;1.55;;
73550;SDS011;61816;53.582;10.096;2023-02-19T11:57:37;5.78;;;1.35;;
73550;SDS011;61816;53.582;10.096;2023-02-19T12:08:47;7.88;;;1.50;;
73550;SDS011;61816;53.582;10.096;2023-02-19T12:11:31;8.00;;;1.23;;
73550;SDS011;61816;53.582;10.096;2023-02-19T12:17:08;8.30;;;0.93;;
73550;SDS011;61816;53.582;10.096;2023-02-19T12:19:55;9.10;;;1.20;;
73550;SDS011;61816;53.582;10.096;2023-02-19T12:22:32;7.18;;;1.17;;
73550;SDS011;61816;53.582;10.096;2023-02-19T12:25:18;7.55;;;1.10;;
73550;SDS011;61816;53.582;10.096;2023-02-19T12:30:24;10.68;;;1.85;;
73550;SDS011;61816;53.582;10.096;2023-02-19T12:35:57;9.45;;;1.83;;
73550;SDS011;61816;53.582;10.096;2023-02-19T12:41:11;17.63;;;2.30;;
73550;SDS011;61816;53.582;10.096;2023-02-19T12:43:50;7.60;;;1.38;;
73550;SDS011;61816;53.582;10.096;2023-02-19T12:46:20;8.48;;;1.67;;
73550;SDS011;61816;53.582;10.096;2023-02-19T12:48:53;11.13;;;2.00;;
73550;SDS011;61816;53.582;10.096;2023-02-19T12:51:29;9.73;;;1.85;;
73550;SDS011;61816;53.582;10.096;2023-02-19T12:54:06;6.72;;;1.50;;
73550;SDS011;61816;53.582;10.096;2023-02-19T12:56:41;8.40;;;1.50;;
73550;SDS011;61816;53.582;10.096;2023-02-19T12:59:26;13.38;;;1.80;;
73550;SDS011;61816;53.582;10.096;2023-02-19T13:04:41;10.40;;;1.50;;
73550;SDS011;61816;53.582;10.096;2023-02-19T13:07:35;11.18;;;1.83;;
73550;SDS011;61816;53.582;10.096;2023-02-19T13:12:38;10.63;;;1.45;;
73550;SDS011;61816;53.582;10.096;2023-02-19T13:15:15;9.55;;;1.83;;
73550;SDS011;61816;53.582;10.096;2023-02-19T13:17:46;13.57;;;3.03;;
73550;SDS011;61816;53.582;10.096;2023-02-19T13:23:06;14.82;;;1.73;;
73550;SDS011;61816;53.582;10.096;2023-02-19T13:28:55;9.98;;;2.13;;
73550;SDS011;61816;53.582;10.096;2023-02-19T13:34:09;18.42;;;1.70;;
73550;SDS011;61816;53.582;10.096;2023-02-19T13:36:48;7.28;;;1.15;;
73550;SDS011;61816;53.582;10.096;2023-02-19T13:39:14;15.80;;;1.95;;
73550;SDS011;61816;53.582;10.096;2023-02-19T13:41:50;10.18;;;1.90;;
73550;SDS011;61816;53.582;10.096;2023-02-19T13:44:19;13.88;;;1.85;;
73550;SDS011;61816;53.582;10.096;2023-02-19T13:51:47;13.13;;;1.83;;
73550;SDS011;61816;53.582;10.096;2023-02-19T13:54:19;12.02;;;1.27;;
73550;SDS011;61816;53.582;10.096;2023-02-19T13:57:18;7.13;;;1.50;;
73550;SDS011;61816;53.582;10.096;2023-02-19T13:59:51;14.18;;;2.03;;
73550;SDS011;61816;53.582;10.096;2023-02-19T14:04:47;18.05;;;2.72;;
73550;SDS011;61816;53.582;10.096;2023-02-19T14:09:45;9.25;;;1.63;;
73550;SDS011;61816;53.582;10.096;2023-02-19T14:14:47;11.77;;;1.48;;
73550;SDS011;61816;53.582;10.096;2023-02-19T14:36:15;6.30;;;1.05;;
73550;SDS011;61816;53.582;10.096;2023-02-19T14:38:58;12.05;;;1.77;;
73550;SDS011;61816;53.582;10.096;2023-02-19T14:41:27;4.65;;;1.40;;
73550;SDS011;61816;53.582;10.096;2023-02-19T14:43:56;7.47;;;1.38;;
73550;SDS011;61816;53.582;10.096;2023-02-19T14:46:31;6.88;;;1.45;;
73550;SDS011;61816;53.582;10.096;2023-02-19T14:49:04;13.25;;;1.73;;
73550;SDS011;61816;53.582;10.096;2023-02-19T14:51:39;10.43;;;1.60;;
73550;SDS011;61816;53.582;10.096;2023-02-19T14:57:11;12.43;;;1.45;;
73550;SDS011;61816;53.582;10.096;2023-02-19T14:59:55;10.57;;;1.70;;
73550;SDS011;61816;53.582;10.096;2023-02-19T15:02:22;15.70;;;2.25;;
73550;SDS011;61816;53.582;10.096;2023-02-19T15:04:50;9.07;;;1.75;;
73550;SDS011;61816;53.582;10.096;2023-02-19T15:07:35;12.80;;;2.03;;
73550;SDS011;61816;53.582;10.096;2023-02-19T15:10:00;10.80;;;2.17;;
73550;SDS011;61816;53.582;10.096;2023-02-19T15:12:34;13.35;;;1.80;;
73550;SDS011;61816;53.582;10.096;2023-02-19T15:15:06;10.68;;;1.70;;
73550;SDS011;61816;53.582;10.096;2023-02-19T15:17:33;14.07;;;1.63;;
73550;SDS011;61816;53.582;10.096;2023-02-19T15:20:07;8.35;;;1.50;;
73550;SDS011;61816;53.582;10.096;2023-02-19T15:22:35;11.52;;;1.60;;
73550;SDS011;61816;53.582;10.096;2023-02-19T15:25:06;12.93;;;2.38;;
73550;SDS011;61816;53.582;10.096;2023-02-19T15:27:31;12.32;;;1.60;;
73550;SDS011;61816;53.582;10.096;2023-02-19T15:29:58;19.65;;;1.95;;
73550;SDS011;61816;53.582;10.096;2023-02-19T15:32:25;11.70;;;1.90;;
73550;SDS011;61816;53.582;10.096;2023-02-19T15:34:52;13.45;;;1.92;;
73550;SDS011;61816;53.582;10.096;2023-02-19T15:37:19;10.30;;;1.88;;
73550;SDS011;61816;53.582;10.096;2023-02-19T15:39:45;11.05;;;1.80;;
73550;SDS011;61816;53.582;10.096;2023-02-19T15:42:17;8.43;;;1.65;;
73550;SDS011;61816;53.582;10.096;2023-02-19T15:50:51;9.43;;;1.48;;
73550;SDS011;61816;53.582;10.096;2023-02-19T15:53:16;12.75;;;2.17;;
73550;SDS011;61816;53.582;10.096;2023-02-19T16:01:03;9.98;;;1.50;;
73550;SDS011;61816;53.582;10.096;2023-02-19T16:03:35;10.00;;;1.50;;
73550;SDS011;61816;53.582;10.096;2023-02-19T16:08:29;12.38;;;2.22;;
73550;SDS011;61816;53.582;10.096;2023-02-19T16:10:59;10.57;;;1.70;;
73550;SDS011;61816;53.582;10.096;2023-02-19T16:16:02;14.23;;;1.63;;
73550;SDS011;61816;53.582;10.096;2023-02-19T16:18:38;13.55;;;1.90;;
73550;SDS011;61816;53.582;10.096;2023-02-19T16:21:10;6.35;;;1.60;;
73550;SDS011;61816;53.582;10.096;2023-02-19T16:23:43;9.57;;;2.28;;
73550;SDS011;61816;53.582;10.096;2023-02-19T16:26:12;12.23;;;2.15;;
73550;SDS011;61816;53.582;10.096;2023-02-19T16:28:38;9.90;;;1.88;;
73550;SDS011;61816;53.582;10.096;2023-02-19T16:31:09;10.18;;;2.40;;
73550;SDS011;61816;53.582;10.096;2023-02-19T16:41:42;15.50;;;4.85;;
73550;SDS011;61816;53.582;10.096;2023-02-19T16:46:45;27.58;;;7.70;;
73550;SDS011;61816;53.582;10.096;2023-02-19T16:49:12;18.80;;;2.95;;
73550;SDS011;61816;53.582;10.096;2023-02-19T16:51:38;15.93;;;3.92;;
73550;SDS011;61816;53.582;10.096;2023-02-19T16:54:04;16.73;;;4.85;;
73550;SDS011;61816;53.582;10.096;2023-02-19T16:56:30;19.35;;;6.63;;
73550;SDS011;61816;53.582;10.096;2023-02-19T16:58:56;13.40;;;2.10;;
73550;SDS011;61816;53.582;10.096;2023-02-19T17:01:23;13.02;;;2.15;;
73550;SDS011;61816;53.582;10.096;2023-02-19T17:03:50;16.77;;;3.22;;
73550;SDS011;61816;53.582;10.096;2023-02-19T17:06:22;11.63;;;2.45;;
73550;SDS011;61816;53.582;10.096;2023-02-19T17:08:52;9.35;;;2.00;;
73550;SDS011;61816;53.582;10.096;2023-02-19T17:11:17;17.20;;;3.40;;
73550;SDS011;61816;53.582;10.096;2023-02-19T17:13:43;14.82;;;3.20;;
73550;SDS011;61816;53.582;10.096;2023-02-19T17:16:15;15.93;;;2.90;;
73550;SDS011;61816;53.582;10.096;2023-02-19T17:18:52;11.23;;;2.67;;
73550;SDS011;61816;53.582;10.096;2023-02-19T17:21:39;17.83;;;3.72;;
73550;SDS011;61816;53.582;10.096;2023-02-19T17:24:12;15.95;;;2.90;;